Time;durP1;ratioP1;P1;durP2;ratioP2;P2;SDS_P1;SDS_P2;PMS_P1;PMS_P2;Temp;Humidity;BMP_temperature;BMP_pressure;BME280_temperature;BME280_humidity;BME280_pressure;Samples;Min_cycle;Max_cycle;Signal;HPM_P1;HPM_P2
2021/04/30 00:01:28;;;;;;;483.17;17.33;;;12.30;98.00;;;;;;5038191;28;20489;-71
2021/04/30 00:03:54;;;;;;;8.23;3.47;;;12.20;98.00;;;;;;5038444;28;20097;-72
2021/04/30 00:06:20;;;;;;;21.23;3.28;;;12.00;98.00;;;;;;5038193;28;20055;-72
2021/04/30 00:08:45;;;;;;;3.53;2.75;;;12.00;98.00;;;;;;5038413;28;20028;-72
2021/04/30 00:11:11;;;;;;;2.22;1.98;;;11.90;98.00;;;;;;5038436;28;20033;-71
2021/04/30 00:13:37;;;;;;;4.53;2.70;;;11.90;98.00;;;;;;5037971;28;20025;-72
2021/04/30 00:16:05;;;;;;;6.05;2.40;;;11.90;98.00;;;;;;5037962;28;20041;-72
2021/04/30 00:18:31;;;;;;;3.55;2.78;;;11.90;98.00;;;;;;5038266;28;20071;-72
2021/04/30 00:20:58;;;;;;;4.00;1.10;;;11.90;98.00;;;;;;5037840;28;20029;-72
2021/04/30 00:23:27;;;;;;;1.55;1.10;;;12.00;98.00;;;;;;5038191;28;20036;-72
2021/04/30 00:25:54;;;;;;;1.92;0.93;;;12.00;98.00;;;;;;5036760;28;20094;-71
2021/04/30 00:28:20;;;;;;;2.03;1.30;;;12.10;98.00;;;;;;5038072;28;20123;-72
2021/04/30 00:30:47;;;;;;;1.10;0.73;;;12.10;98.00;;;;;;5038027;28;20058;-72
2021/04/30 00:33:12;;;;;;;0.90;0.70;;;12.10;98.00;;;;;;5037965;28;20295;-72
2021/04/30 00:35:38;;;;;;;1.25;0.60;;;12.10;98.00;;;;;;5037807;28;20033;-72
2021/04/30 00:38:04;;;;;;;1.35;0.68;;;12.10;98.00;;;;;;5037935;28;20031;-72
2021/04/30 00:40:30;;;;;;;15.88;2.22;;;12.10;98.00;;;;;;5037312;28;20057;-72
2021/04/30 00:42:56;;;;;;;1.67;1.50;;;12.10;98.00;;;;;;5037793;28;20029;-72
2021/04/30 00:45:24;;;;;;;1.58;1.15;;;12.10;98.00;;;;;;5037654;28;20377;-72
2021/04/30 00:47:51;;;;;;;2.50;1.60;;;12.10;98.00;;;;;;5037371;28;20020;-72
2021/04/30 00:50:18;;;;;;;3.33;1.98;;;12.10;98.00;;;;;;5037740;28;20330;-72
2021/04/30 00:52:43;;;;;;;2.97;1.52;;;12.20;98.00;;;;;;5037176;28;20049;-72
2021/04/30 00:55:11;;;;;;;2.00;0.98;;;12.20;98.00;;;;;;5037482;28;20360;-72
2021/04/30 00:57:39;;;;;;;1.23;1.00;;;12.30;98.00;;;;;;5037598;28;20041;-72
2021/04/30 01:00:08;;;;;;;3.05;1.67;;;12.40;98.00;;;;;;5037063;28;20048;-72
2021/04/30 01:02:34;;;;;;;2.28;1.73;;;12.40;98.00;;;;;;5037153;28;20049;-71
2021/04/30 01:05:01;;;;;;;1.70;1.60;;;12.40;98.00;;;;;;5037094;28;20064;-72
2021/04/30 01:07:28;;;;;;;7.65;1.60;;;12.30;98.00;;;;;;5037406;28;20322;-72
2021/04/30 01:09:55;;;;;;;4.68;1.50;;;12.30;98.00;;;;;;5037339;28;20042;-71
2021/04/30 01:12:22;;;;;;;13.95;1.38;;;12.20;98.00;;;;;;5037326;28;20033;-72
2021/04/30 01:14:48;;;;;;;63.70;2.88;;;12.20;98.00;;;;;;5036889;28;20032;-72
2021/04/30 01:17:14;;;;;;;116.68;3.88;;;12.20;98.00;;;;;;5036949;28;20080;-72
2021/04/30 01:19:40;;;;;;;145.27;5.93;;;12.20;98.00;;;;;;5036844;28;20025;-72
2021/04/30 01:22:06;;;;;;;302.50;8.50;;;12.10;98.00;;;;;;5036847;28;20025;-72
2021/04/30 01:24:31;;;;;;;38.72;2.22;;;12.10;98.00;;;;;;5036649;28;20032;-72
2021/04/30 01:26:57;;;;;;;123.63;4.25;;;12.00;98.00;;;;;;5037083;28;20025;-72
2021/04/30 01:29:26;;;;;;;34.88;2.42;;;12.00;98.00;;;;;;5037085;28;20021;-72
2021/04/30 01:31:52;;;;;;;1.67;1.20;;;12.10;98.00;;;;;;5037075;28;20017;-71
2021/04/30 01:34:18;;;;;;;1.48;1.08;;;12.10;98.00;;;;;;5037005;28;20317;-72
2021/04/30 01:36:44;;;;;;;1.33;0.70;;;12.20;98.00;;;;;;5036991;28;20022;-72
2021/04/30 01:39:13;;;;;;;1.52;0.60;;;12.10;98.00;;;;;;5036712;28;20042;-72
2021/04/30 01:41:40;;;;;;;0.88;0.60;;;12.20;98.00;;;;;;5036834;28;20047;-71
2021/04/30 01:44:11;;;;;;;1.27;0.98;;;12.20;98.00;;;;;;5036865;28;20038;-72
2021/04/30 01:46:37;;;;;;;69.70;3.88;;;12.20;98.00;;;;;;5037418;28;20021;-72
2021/04/30 01:49:04;;;;;;;1.27;0.95;;;12.10;98.00;;;;;;5043180;28;20037;-72
2021/04/30 01:51:30;;;;;;;0.40;0.25;;;12.10;98.00;;;;;;5043160;28;20425;-72
2021/04/30 01:53:56;;;;;;;1.52;0.40;;;12.10;98.00;;;;;;5043297;28;20037;-71
2021/04/30 01:56:22;;;;;;;2.42;0.40;;;12.10;98.00;;;;;;5043425;28;20037;-71
2021/04/30 01:58:47;;;;;;;0.95;0.50;;;12.20;98.00;;;;;;5043393;28;20417;-71
2021/04/30 02:01:13;;;;;;;0.95;0.35;;;12.10;98.00;;;;;;5043357;28;20030;-71
2021/04/30 02:03:39;;;;;;;0.73;0.40;;;12.00;98.00;;;;;;5042979;28;20021;-71
2021/04/30 02:06:05;;;;;;;3.63;0.30;;;12.00;98.00;;;;;;5043014;28;20025;-71
2021/04/30 02:08:31;;;;;;;0.75;0.25;;;11.90;98.00;;;;;;5043325;28;20026;-71
2021/04/30 02:10:57;;;;;;;1.80;0.30;;;11.90;98.00;;;;;;5043350;28;20056;-71
2021/04/30 02:13:23;;;;;;;0.93;0.22;;;11.90;98.00;;;;;;5043285;28;20364;-72
2021/04/30 02:15:51;;;;;;;2.20;0.20;;;11.90;98.00;;;;;;5043118;28;20112;-72
2021/04/30 02:18:18;;;;;;;0.30;0.10;;;12.00;98.00;;;;;;5042931;28;20025;-72
2021/04/30 02:20:44;;;;;;;0.63;0.20;;;12.10;98.00;;;;;;5043163;28;20029;-72
2021/04/30 02:23:10;;;;;;;1.25;0.10;;;12.10;98.00;;;;;;5042770;28;20021;-71
2021/04/30 02:25:37;;;;;;;2.75;0.10;;;12.20;98.00;;;;;;5043101;28;20037;-72
2021/04/30 02:28:04;;;;;;;0.52;0.20;;;12.20;98.00;;;;;;5043131;28;20037;-71
2021/04/30 02:30:32;;;;;;;0.13;0.10;;;12.10;98.00;;;;;;5043119;28;20322;-72
2021/04/30 02:32:59;;;;;;;0.20;0.20;;;12.00;98.00;;;;;;5042756;28;20031;-72
2021/04/30 02:35:36;;;;;;;3.83;0.15;;;12.10;98.00;;;;;;5042684;28;20377;-72
2021/04/30 02:38:05;;;;;;;7.75;0.30;;;12.00;98.00;;;;;;5043001;28;20053;-71
2021/04/30 02:40:32;;;;;;;3.50;0.22;;;11.90;98.00;;;;;;5042699;28;20323;-71
2021/04/30 02:43:02;;;;;;;0.13;0.10;;;11.90;98.00;;;;;;5042954;28;20054;-72
2021/04/30 02:45:28;;;;;;;0.10;0.10;;;11.90;98.00;;;;;;5042660;28;20033;-72
2021/04/30 02:47:56;;;;;;;0.10;0.10;;;11.90;98.00;;;;;;5042661;28;20049;-72
2021/04/30 02:50:25;;;;;;;0.52;0.17;;;11.90;98.00;;;;;;5042542;28;20035;-72
2021/04/30 02:52:51;;;;;;;0.20;0.20;;;11.90;98.00;;;;;;5042872;28;20067;-72
2021/04/30 02:55:22;;;;;;;0.52;0.22;;;11.80;98.00;;;;;;5042825;28;20053;-72
2021/04/30 02:57:57;;;;;;;0.30;0.20;;;11.80;98.00;;;;;;5042328;28;20029;-72
2021/04/30 03:00:25;;;;;;;1.00;0.20;;;11.80;98.00;;;;;;5038786;28;20060;-72
2021/04/30 03:02:51;;;;;;;0.32;0.20;;;11.80;98.00;;;;;;5039419;28;20060;-72
2021/04/30 03:05:17;;;;;;;0.40;0.20;;;11.80;98.00;;;;;;5039314;28;20022;-72
2021/04/30 03:07:43;;;;;;;0.25;0.20;;;11.80;98.00;;;;;;5039330;28;20025;-72
2021/04/30 03:10:10;;;;;;;0.40;0.20;;;11.70;98.00;;;;;;5039528;28;20025;-72
2021/04/30 03:12:36;;;;;;;4.60;0.95;;;11.70;98.00;;;;;;5039210;28;20116;-72
2021/04/30 03:15:02;;;;;;;0.38;0.30;;;11.70;98.00;;;;;;5039488;28;20053;-72
2021/04/30 03:17:29;;;;;;;1.20;0.40;;;11.70;98.00;;;;;;5039441;28;20030;-72
2021/04/30 03:19:55;;;;;;;2.25;0.45;;;11.70;98.00;;;;;;5039093;28;20030;-72
2021/04/30 03:22:21;;;;;;;0.98;0.47;;;11.70;98.00;;;;;;5039297;28;20026;-72
2021/04/30 03:24:48;;;;;;;0.57;0.35;;;11.80;98.00;;;;;;5039453;28;20021;-72
2021/04/30 03:27:13;;;;;;;1.02;0.60;;;11.80;98.00;;;;;;5039002;28;20036;-71
2021/04/30 03:29:39;;;;;;;0.80;0.40;;;11.80;98.00;;;;;;5039209;28;20021;-72
2021/04/30 03:32:07;;;;;;;1.70;0.30;;;11.90;98.00;;;;;;5039233;28;20402;-72
2021/04/30 03:34:34;;;;;;;1.02;0.60;;;11.90;98.00;;;;;;5038725;28;20032;-72
2021/04/30 03:37:00;;;;;;;0.60;0.40;;;11.90;98.00;;;;;;5039060;28;20032;-72
2021/04/30 03:39:26;;;;;;;1.13;0.63;;;11.90;98.00;;;;;;5038549;28;20410;-72
2021/04/30 03:41:51;;;;;;;1.40;0.50;;;11.90;98.00;;;;;;5038858;28;20033;-72
2021/04/30 03:44:17;;;;;;;0.60;0.50;;;11.90;98.00;;;;;;5038622;28;20163;-72
2021/04/30 03:46:43;;;;;;;1.23;0.40;;;12.00;98.00;;;;;;5038904;28;20024;-72
2021/04/30 03:49:08;;;;;;;0.50;0.30;;;12.00;98.00;;;;;;5038558;28;20052;-72
2021/04/30 03:51:34;;;;;;;0.55;0.30;;;12.00;98.00;;;;;;5038884;28;20100;-72
2021/04/30 03:54:00;;;;;;;4.60;0.40;;;12.00;98.00;;;;;;5038312;28;20036;-72
2021/04/30 03:56:26;;;;;;;3.33;0.52;;;12.00;98.00;;;;;;5038718;28;20030;-72
2021/04/30 03:58:51;;;;;;;3.35;0.40;;;11.90;98.00;;;;;;5038417;28;20465;-71
2021/04/30 04:01:17;;;;;;;1.17;0.30;;;11.90;98.00;;;;;;5038582;28;20021;-72
2021/04/30 04:03:43;;;;;;;0.30;0.30;;;11.90;98.00;;;;;;5038535;28;20036;-72
2021/04/30 04:06:08;;;;;;;2.45;0.20;;;11.90;98.00;;;;;;5038531;28;20060;-72
2021/04/30 04:08:34;;;;;;;0.35;0.22;;;11.90;98.00;;;;;;5038517;28;20048;-72
2021/04/30 04:11:00;;;;;;;1.08;0.30;;;11.90;98.00;;;;;;5037857;28;20406;-72
2021/04/30 04:13:26;;;;;;;0.20;0.20;;;11.90;98.00;;;;;;5038438;28;20029;-72
2021/04/30 04:15:53;;;;;;;0.13;0.13;;;11.90;98.00;;;;;;5038018;28;20021;-72
2021/04/30 04:18:19;;;;;;;4.45;0.30;;;12.00;98.00;;;;;;5037958;28;20052;-72
2021/04/30 04:20:45;;;;;;;0.43;0.20;;;12.10;98.00;;;;;;5037884;28;20414;-72
2021/04/30 04:23:12;;;;;;;0.75;0.40;;;12.10;98.00;;;;;;5037990;28;20029;-72
2021/04/30 04:25:38;;;;;;;1.65;0.30;;;12.00;98.00;;;;;;5037764;28;20041;-72
2021/04/30 04:28:05;;;;;;;0.30;0.20;;;12.00;98.00;;;;;;5038108;28;20045;-72
2021/04/30 04:30:31;;;;;;;0.98;0.30;;;12.00;98.00;;;;;;5037744;28;20345;-72
2021/04/30 04:32:57;;;;;;;1.35;0.30;;;12.00;98.00;;;;;;5038026;28;20029;-71
2021/04/30 04:35:22;;;;;;;0.88;0.30;;;12.00;98.00;;;;;;5037989;28;20482;-72
2021/04/30 04:37:48;;;;;;;0.80;0.40;;;12.10;98.00;;;;;;5037947;28;20170;-72
2021/04/30 04:40:16;;;;;;;6.20;0.60;;;12.20;98.00;;;;;;5037379;28;20072;-72
2021/04/30 04:42:45;;;;;;;5.22;1.33;;;12.20;98.00;;;;;;5037594;28;20021;-71
2021/04/30 04:45:13;;;;;;;3.03;1.60;;;12.30;98.00;;;;;;5037699;28;20037;-72
2021/04/30 04:47:38;;;;;;;1.00;0.60;;;12.30;98.00;;;;;;5037751;28;20067;-71
2021/04/30 04:50:05;;;;;;;0.93;0.63;;;12.40;98.00;;;;;;5037670;28;20409;-72
2021/04/30 04:52:31;;;;;;;1.20;0.85;;;12.40;98.00;;;;;;5037312;28;20033;-72
2021/04/30 04:54:57;;;;;;;0.95;0.60;;;12.40;98.00;;;;;;5037747;28;20469;-72
2021/04/30 04:57:23;;;;;;;0.82;0.40;;;12.50;98.00;;;;;;5037301;28;20065;-72
2021/04/30 04:59:48;;;;;;;1.15;0.40;;;12.50;98.00;;;;;;5037518;28;20053;-72
2021/04/30 05:02:14;;;;;;;1.85;0.30;;;12.60;98.00;;;;;;5037167;28;20321;-71
2021/04/30 05:04:40;;;;;;;0.57;0.38;;;12.60;98.00;;;;;;5037433;28;20018;-72
2021/04/30 05:07:05;;;;;;;0.55;0.30;;;12.60;98.00;;;;;;5037409;28;20060;-72
2021/04/30 05:09:31;;;;;;;1.85;0.30;;;12.70;98.00;;;;;;5037033;28;20021;-72
2021/04/30 05:11:57;;;;;;;0.65;0.30;;;12.70;98.00;;;;;;5037396;28;20029;-72
2021/04/30 05:14:22;;;;;;;0.70;0.50;;;12.70;98.00;;;;;;5037003;28;20048;-72
2021/04/30 05:16:49;;;;;;;1.05;0.35;;;12.70;98.00;;;;;;5036962;28;20183;-72
2021/04/30 05:19:14;;;;;;;0.93;0.30;;;12.70;98.00;;;;;;5036930;28;20037;-71
2021/04/30 05:21:41;;;;;;;0.35;0.30;;;12.70;98.00;;;;;;5036130;28;20033;-72
2021/04/30 05:24:10;;;;;;;1.75;0.20;;;12.70;98.00;;;;;;5037214;28;20314;-72
2021/04/30 05:26:37;;;;;;;2.03;0.20;;;12.80;98.00;;;;;;5036794;28;20032;-72
2021/04/30 05:29:04;;;;;;;0.20;0.20;;;12.80;98.00;;;;;;5037124;28;20076;-72
2021/04/30 05:31:30;;;;;;;1.08;0.20;;;12.80;98.00;;;;;;5037100;28;20409;-71
2021/04/30 05:33:56;;;;;;;0.45;0.30;;;12.80;98.00;;;;;;5036695;28;20029;-71
2021/04/30 05:36:22;;;;;;;0.45;0.40;;;12.70;98.00;;;;;;5036669;28;20033;-71
2021/04/30 05:38:47;;;;;;;0.60;0.38;;;12.70;98.00;;;;;;5036824;28;20032;-71
2021/04/30 05:41:13;;;;;;;1.30;0.47;;;12.70;98.00;;;;;;5036627;28;20116;-72
2021/04/30 05:43:39;;;;;;;0.75;0.30;;;12.70;98.00;;;;;;5036870;28;20017;-72
2021/04/30 05:46:05;;;;;;;0.20;0.20;;;12.90;98.00;;;;;;5036631;28;20033;-72
2021/04/30 05:48:30;;;;;;;0.35;0.20;;;13.00;98.00;;;;;;5036909;28;20041;-72
2021/04/30 05:50:56;;;;;;;1.90;0.35;;;13.20;98.00;;;;;;5036868;28;20398;-72
2021/04/30 05:53:22;;;;;;;0.90;0.22;;;13.30;98.00;;;;;;5036656;28;20439;-72
2021/04/30 05:55:48;;;;;;;0.40;0.22;;;13.50;98.00;;;;;;5036417;28;20091;-72
2021/04/30 05:58:14;;;;;;;0.50;0.30;;;13.50;97.00;;;;;;5037024;28;20325;-72
2021/04/30 06:00:40;;;;;;;0.40;0.30;;;13.50;97.50;;;;;;5036699;28;20026;-72
2021/04/30 06:03:06;;;;;;;2.35;0.30;;;13.60;97.80;;;;;;5036739;28;20420;-72
2021/04/30 06:05:32;;;;;;;0.60;0.35;;;13.70;97.70;;;;;;5036413;28;20030;-72
2021/04/30 06:07:57;;;;;;;0.90;0.68;;;13.70;97.60;;;;;;5036404;28;20037;-72
2021/04/30 06:10:23;;;;;;;2.45;0.40;;;13.60;98.00;;;;;;5036718;28;20028;-72
2021/04/30 06:12:49;;;;;;;1.10;0.35;;;13.60;97.80;;;;;;5036625;28;20402;-72
2021/04/30 06:15:15;;;;;;;2.08;0.30;;;13.70;98.00;;;;;;5036284;28;20092;-72
2021/04/30 06:17:41;;;;;;;0.52;0.30;;;13.80;97.50;;;;;;5036280;28;20021;-72
2021/04/30 06:20:07;;;;;;;0.65;0.30;;;13.80;96.90;;;;;;5036634;28;20068;-72
2021/04/30 06:22:33;;;;;;;0.68;0.30;;;13.80;96.80;;;;;;5036501;28;20021;-72
2021/04/30 06:24:58;;;;;;;1.30;0.40;;;13.90;96.40;;;;;;5036652;28;20480;-72
2021/04/30 06:27:25;;;;;;;3.15;0.50;;;14.10;96.30;;;;;;5036532;28;20033;-72
2021/04/30 06:29:51;;;;;;;0.28;0.20;;;14.20;96.70;;;;;;5036216;28;20025;-72
2021/04/30 06:32:17;;;;;;;1.08;0.40;;;14.30;96.10;;;;;;5036596;28;20057;-72
2021/04/30 06:34:43;;;;;;;1.92;0.30;;;14.40;95.20;;;;;;5039799;28;20053;-72
2021/04/30 06:37:09;;;;;;;0.60;0.30;;;14.50;95.70;;;;;;5039887;28;20032;-72
2021/04/30 06:39:35;;;;;;;0.70;0.40;;;14.60;96.30;;;;;;5039862;28;20046;-72
2021/04/30 06:42:04;;;;;;;0.98;0.35;;;14.80;96.10;;;;;;5040063;28;20368;-72
2021/04/30 06:44:31;;;;;;;0.80;0.70;;;15.00;95.00;;;;;;5040059;28;20095;-72
2021/04/30 06:46:58;;;;;;;0.90;0.68;;;15.30;94.50;;;;;;5039714;28;20026;-72
2021/04/30 06:49:23;;;;;;;1.40;0.57;;;15.80;93.90;;;;;;5039695;28;20030;-72
2021/04/30 06:51:49;;;;;;;0.80;0.50;;;16.00;90.20;;;;;;5039964;28;20025;-72
2021/04/30 06:54:17;;;;;;;3.00;0.68;;;16.10;90.80;;;;;;5039998;28;20112;-72
2021/04/30 06:56:43;;;;;;;1.00;0.60;;;16.00;90.10;;;;;;5039550;28;20029;-72
2021/04/30 06:59:08;;;;;;;1.02;0.50;;;16.00;90.40;;;;;;5039801;28;20040;-72
2021/04/30 07:01:34;;;;;;;1.15;0.55;;;16.00;91.90;;;;;;5039758;28;20433;-72
2021/04/30 07:04:00;;;;;;;2.03;0.50;;;15.90;91.50;;;;;;5039392;28;20032;-72
2021/04/30 07:06:25;;;;;;;0.82;0.40;;;15.90;91.00;;;;;;5039704;28;20097;-72
2021/04/30 07:08:52;;;;;;;1.20;0.57;;;15.90;90.30;;;;;;5039617;28;20029;-72
2021/04/30 07:11:18;;;;;;;1.48;0.80;;;15.80;90.70;;;;;;5039642;28;20072;-72
2021/04/30 07:13:43;;;;;;;7.22;0.65;;;15.60;90.80;;;;;;5039202;28;20414;-72
2021/04/30 07:16:09;;;;;;;0.80;0.60;;;15.40;91.40;;;;;;5039182;28;20055;-72
2021/04/30 07:18:35;;;;;;;1.05;0.73;;;15.10;92.80;;;;;;5039153;28;20104;-72
2021/04/30 07:21:01;;;;;;;3.78;0.60;;;14.90;93.10;;;;;;5039012;28;20025;-72
2021/04/30 07:23:28;;;;;;;1.52;0.70;;;14.90;92.80;;;;;;5039353;28;20033;-72
2021/04/30 07:25:54;;;;;;;1.33;0.60;;;15.10;92.80;;;;;;5038993;28;20033;-72
2021/04/30 07:28:20;;;;;;;1.10;0.50;;;15.00;93.30;;;;;;5039273;28;20026;-72
2021/04/30 07:30:46;;;;;;;0.85;0.45;;;14.90;91.50;;;;;;5039270;28;20417;-72
2021/04/30 07:33:12;;;;;;;1.40;0.50;;;14.90;92.70;;;;;;5038869;28;20067;-72
2021/04/30 07:35:39;;;;;;;1.40;0.68;;;14.90;93.10;;;;;;5038826;28;20030;-72
2021/04/30 07:38:06;;;;;;;1.05;0.55;;;14.90;92.60;;;;;;5038740;28;20418;-72
2021/04/30 07:40:33;;;;;;;1.40;0.63;;;14.90;93.10;;;;;;5038540;28;20464;-72
2021/04/30 07:42:59;;;;;;;2.15;1.00;;;15.10;93.70;;;;;;5038995;28;20029;-72
2021/04/30 07:45:24;;;;;;;1.10;0.60;;;15.20;90.50;;;;;;5038167;28;20111;-72
2021/04/30 07:47:50;;;;;;;5.43;1.02;;;15.20;92.40;;;;;;5038947;28;20026;-72
2021/04/30 07:50:16;;;;;;;1.50;1.00;;;15.20;93.00;;;;;;5038901;28;20072;-72
2021/04/30 07:52:41;;;;;;;2.60;1.25;;;15.20;94.30;;;;;;5038426;28;20032;-72
2021/04/30 07:55:08;;;;;;;1.90;1.08;;;15.20;93.90;;;;;;5039097;28;20057;-72
2021/04/30 07:57:35;;;;;;;1.25;0.90;;;15.40;92.80;;;;;;5038413;28;20025;-72
2021/04/30 08:00:01;;;;;;;1.20;0.90;;;15.40;92.70;;;;;;5038336;28;20025;-72
2021/04/30 08:02:26;;;;;;;1.67;1.20;;;15.60;92.30;;;;;;5038608;28;20067;-72
2021/04/30 08:04:52;;;;;;;2.40;1.20;;;15.60;91.20;;;;;;5038230;28;20029;-72
2021/04/30 08:07:18;;;;;;;1.10;0.68;;;15.50;91.80;;;;;;5038219;28;20034;-72
2021/04/30 08:09:44;;;;;;;1.88;1.10;;;15.40;92.20;;;;;;5038165;28;20022;-72
2021/04/30 08:12:10;;;;;;;1.17;1.00;;;15.30;91.60;;;;;;5038171;28;20029;-72
2021/04/30 08:14:36;;;;;;;3.47;1.60;;;15.20;91.70;;;;;;5038341;28;20029;-72
2021/04/30 08:17:01;;;;;;;1.98;1.20;;;15.20;92.70;;;;;;5038352;28;20032;-72
2021/04/30 08:19:27;;;;;;;1.17;1.05;;;15.10;92.80;;;;;;5038261;28;20413;-72
2021/04/30 08:21:53;;;;;;;2.72;1.20;;;15.10;93.30;;;;;;5038237;28;20061;-72
2021/04/30 08:24:20;;;;;;;2.10;1.00;;;15.10;92.50;;;;;;5038353;28;20029;-72
2021/04/30 08:26:47;;;;;;;4.50;0.85;;;15.20;93.30;;;;;;5037841;28;20500;-72
2021/04/30 08:29:13;;;;;;;1.10;0.90;;;15.30;90.20;;;;;;5038097;28;20108;-72
2021/04/30 08:31:39;;;;;;;1.50;0.93;;;15.50;89.80;;;;;;5037816;28;20037;-72
2021/04/30 08:34:05;;;;;;;2.65;0.80;;;15.60;91.70;;;;;;5038015;28;20080;-72
2021/04/30 08:36:30;;;;;;;7.75;1.23;;;16.00;90.80;;;;;;5038007;28;20032;-72
2021/04/30 08:38:56;;;;;;;1.35;0.63;;;16.30;92.00;;;;;;5037474;28;20326;-72
2021/04/30 08:41:25;;;;;;;2.78;0.80;;;16.70;87.20;;;;;;5037868;28;20073;-72
2021/04/30 08:43:52;;;;;;;1.58;0.50;;;16.90;87.10;;;;;;5037462;28;20088;-72
2021/04/30 08:46:18;;;;;;;2.60;0.95;;;17.10;84.90;;;;;;5037497;28;20086;-72
2021/04/30 08:48:45;;;;;;;1.02;0.80;;;17.30;87.50;;;;;;5037447;28;20036;-72
2021/04/30 08:51:11;;;;;;;1.55;0.93;;;17.60;87.20;;;;;;5037469;28;20471;-72
2021/04/30 08:53:40;;;;;;;1.60;0.98;;;17.70;85.40;;;;;;5037673;28;20357;-72
2021/04/30 08:56:06;;;;;;;1.45;1.00;;;17.80;79.70;;;;;;5037134;28;20321;-72
2021/04/30 08:58:38;;;;;;;2.22;0.80;;;18.10;83.30;;;;;;5037123;28;20037;-72
2021/04/30 09:01:05;;;;;;;1.42;0.68;;;18.60;82.20;;;;;;5037212;28;20445;-72
2021/04/30 09:03:35;;;;;;;1.20;0.65;;;18.60;78.60;;;;;;5037440;28;20029;-72
2021/04/30 09:06:02;;;;;;;1.48;0.90;;;18.30;80.20;;;;;;5037167;28;20175;-71
2021/04/30 09:08:28;;;;;;;4.10;0.93;;;18.00;79.30;;;;;;5037105;28;20485;-72
2021/04/30 09:10:56;;;;;;;1.73;0.90;;;17.50;80.30;;;;;;5037383;28;20108;-72
2021/04/30 09:13:23;;;;;;;1.08;0.60;;;17.30;82.50;;;;;;5037059;28;20041;-72
2021/04/30 09:16:05;;;;;;;2.30;0.90;;;18.20;80.40;;;;;;5036895;28;20080;-72
2021/04/30 09:18:33;;;;;;;1.40;0.90;;;18.60;82.10;;;;;;5037036;28;20151;-71
2021/04/30 09:21:11;;;;;;;4.28;1.00;;;18.60;80.90;;;;;;5036887;28;20104;-71
2021/04/30 09:23:47;;;;;;;1.30;0.85;;;19.60;82.80;;;;;;5036779;28;20038;-71
2021/04/30 09:26:23;;;;;;;1.60;1.05;;;20.40;74.60;;;;;;5037156;28;20076;-72
2021/04/30 09:29:05;;;;;;;1.10;0.80;;;20.30;75.20;;;;;;5036814;28;20087;-71
2021/04/30 09:31:38;;;;;;;1.98;1.20;;;19.90;77.30;;;;;;5036761;28;20029;-71
2021/04/30 09:34:29;;;;;;;3.97;1.33;;;19.20;79.00;;;;;;5037069;28;20357;-73
2021/04/30 09:36:55;;;;;;;1.70;1.33;;;18.70;80.60;;;;;;5037084;28;20314;-73
2021/04/30 09:39:21;;;;;;;2.05;1.50;;;18.60;82.50;;;;;;5036712;28;20041;-72
2021/04/30 09:42:06;;;;;;;2.30;1.00;;;19.70;78.10;;;;;;5036930;28;20036;-71
2021/04/30 09:44:43;;;;;;;2.03;1.20;;;20.40;75.90;;;;;;5036860;28;20029;-71
2021/04/30 09:47:12;;;;;;;2.38;1.30;;;20.40;74.80;;;;;;5036927;28;20021;-71
2021/04/30 09:49:38;;;;;;;2.47;1.20;;;20.60;71.70;;;;;;5036833;28;20030;-71
2021/04/30 09:52:05;;;;;;;1.83;1.00;;;20.30;74.10;;;;;;5036639;28;20448;-71
2021/04/30 09:54:31;;;;;;;3.47;1.40;;;19.70;78.80;;;;;;5036865;28;20108;-71
2021/04/30 09:57:04;;;;;;;2.25;1.70;;;19.10;80.70;;;;;;5036840;28;20029;-71
2021/04/30 09:59:30;;;;;;;2.95;1.35;;;18.60;82.40;;;;;;5036761;28;20033;-70
2021/04/30 10:02:16;;;;;;;2.15;1.70;;;18.30;82.20;;;;;;5036451;28;20083;-71
2021/04/30 10:04:44;;;;;;;2.63;1.80;;;18.20;80.40;;;;;;5036404;28;20083;-71
2021/04/30 10:07:12;;;;;;;3.92;1.90;;;18.10;82.60;;;;;;5036429;28;20021;-72
2021/04/30 10:09:40;;;;;;;2.08;1.63;;;18.20;80.40;;;;;;5039814;28;20045;-72
2021/04/30 10:12:19;;;;;;;3.35;1.58;;;18.90;81.00;;;;;;5040772;28;20358;-71
2021/04/30 10:14:47;;;;;;;4.18;1.80;;;19.10;79.30;;;;;;5038697;28;20040;-71
2021/04/30 10:17:14;;;;;;;2.30;1.92;;;19.10;77.30;;;;;;5049446;28;20025;-71
2021/04/30 10:19:41;;;;;;;4.18;1.65;;;20.30;74.40;;;;;;5060184;28;20056;-71
2021/04/30 10:22:12;;;;;;;4.00;1.83;;;21.20;75.20;;;;;;5060442;28;20021;-71
2021/04/30 10:24:38;;;;;;;2.13;1.52;;;20.80;70.60;;;;;;5060524;28;20120;-71
2021/04/30 10:27:05;;;;;;;2.50;2.17;;;20.00;73.80;;;;;;5060679;28;20024;-71
2021/04/30 10:29:33;;;;;;;3.60;2.03;;;19.40;76.90;;;;;;5060028;28;20409;-71
2021/04/30 10:32:01;;;;;;;5.60;2.70;;;18.90;77.50;;;;;;5060394;28;20028;-70
2021/04/30 10:34:30;;;;;;;2.53;1.80;;;18.50;77.80;;;;;;5060190;28;20029;-72
2021/04/30 10:36:59;;;;;;;6.68;2.22;;;18.50;81.60;;;;;;5059916;28;20025;-71
2021/04/30 10:39:33;;;;;;;3.25;2.08;;;18.70;79.90;;;;;;5059869;28;20040;-72
2021/04/30 10:42:10;;;;;;;5.50;2.42;;;18.70;79.10;;;;;;5060131;28;20037;-72
2021/04/30 10:44:41;;;;;;;4.47;2.30;;;18.30;79.40;;;;;;5060046;28;20032;-71
2021/04/30 10:47:07;;;;;;;4.78;2.60;;;17.80;81.50;;;;;;5060085;28;20044;-72
2021/04/30 10:49:33;;;;;;;2.78;2.03;;;17.50;82.00;;;;;;5059929;28;20029;-73
2021/04/30 10:52:05;;;;;;;2.92;2.63;;;17.30;85.70;;;;;;5059955;28;20400;-72
2021/04/30 10:54:34;;;;;;;3.97;2.20;;;17.20;82.20;;;;;;5059408;28;20048;-72
2021/04/30 10:57:05;;;;;;;3.20;2.20;;;17.20;84.80;;;;;;5059842;28;20439;-72
2021/04/30 10:59:38;;;;;;;3.97;2.67;;;17.10;80.70;;;;;;5059781;28;20381;-71
2021/04/30 11:02:24;;;;;;;6.63;2.92;;;17.00;83.20;;;;;;5059711;28;20033;-72
2021/04/30 11:05:13;;;;;;;4.38;2.20;;;16.90;83.00;;;;;;5059625;28;20108;-73
2021/04/30 11:07:51;;;;;;;3.38;2.15;;;17.00;86.20;;;;;;5059351;28;20105;-73
2021/04/30 11:10:31;;;;;;;3.95;2.67;;;17.00;82.90;;;;;;5059620;28;20321;-73
2021/04/30 11:13:04;;;;;;;3.40;2.47;;;17.00;83.70;;;;;;5059676;28;20013;-72
2021/04/30 11:15:50;;;;;;;4.97;2.85;;;16.90;83.10;;;;;;5059158;28;20032;-71
2021/04/30 11:18:20;;;;;;;;;;;16.90;82.80;;;;;;5059628;28;20495;-72
2021/04/30 11:21:16;;;;;;;6.22;3.92;;;17.00;83.70;;;;;;5058276;28;19909;-73
2021/04/30 11:23:47;;;;;;;4.03;2.83;;;17.20;83.50;;;;;;5059147;28;20036;-71
2021/04/30 11:26:14;;;;;;;5.10;3.40;;;17.30;84.80;;;;;;5059356;28;20364;-71
2021/04/30 11:28:40;;;;;;;4.82;3.35;;;17.20;84.50;;;;;;5059235;28;20090;-71
2021/04/30 11:31:16;;;;;;;4.80;3.88;;;17.20;84.50;;;;;;5059184;28;20033;-73
2021/04/30 11:33:44;;;;;;;6.32;3.60;;;17.20;83.70;;;;;;5059093;28;20037;-74
2021/04/30 11:36:15;;;;;;;4.97;3.83;;;17.10;85.30;;;;;;5059074;28;20100;-72
2021/04/30 11:38:47;;;;;;;5.32;3.70;;;16.80;84.50;;;;;;5058616;28;20468;-71
2021/04/30 11:41:15;;;;;;;4.20;3.78;;;16.70;83.70;;;;;;5058949;28;20037;-71
2021/04/30 11:43:52;;;;;;;5.15;3.90;;;16.70;83.60;;;;;;5058567;28;20483;-72
2021/04/30 11:46:18;;;;;;;6.90;4.07;;;16.70;85.90;;;;;;5058618;28;20033;-71
2021/04/30 11:48:45;;;;;;;6.30;3.97;;;16.70;83.70;;;;;;5058570;28;20474;-73
2021/04/30 11:51:13;;;;;;;5.93;3.42;;;16.60;84.90;;;;;;5058844;28;20035;-72
2021/04/30 11:53:42;;;;;;;6.45;3.47;;;16.50;85.80;;;;;;5058778;28;20028;-71
2021/04/30 11:56:09;;;;;;;6.25;3.97;;;16.50;86.20;;;;;;5058735;28;20044;-71
2021/04/30 11:58:39;;;;;;;4.85;3.45;;;16.60;85.00;;;;;;5058385;28;20425;-71
2021/04/30 12:01:06;;;;;;;4.22;3.72;;;16.90;83.10;;;;;;5058282;28;20021;-71
2021/04/30 12:03:48;;;;;;;6.22;4.20;;;17.00;82.20;;;;;;5058225;28;20075;-71
2021/04/30 12:06:16;;;;;;;7.53;3.58;;;17.10;84.00;;;;;;5058601;28;20070;-71
2021/04/30 12:08:43;;;;;;;7.72;4.00;;;17.00;84.60;;;;;;5058525;28;20025;-72
2021/04/30 12:11:23;;;;;;;6.55;4.35;;;17.00;84.60;;;;;;5058482;28;20029;-71
2021/04/30 12:13:53;;;;;;;10.65;3.55;;;17.00;84.20;;;;;;5058076;28;20428;-72
2021/04/30 12:16:20;;;;;;;5.75;4.45;;;17.00;83.70;;;;;;5058050;28;20110;-71
2021/04/30 12:18:48;;;;;;;5.40;3.63;;;17.20;83.70;;;;;;5058325;28;20025;-71
2021/04/30 12:21:31;;;;;;;6.57;5.13;;;17.40;85.30;;;;;;5057886;28;20151;-72
2021/04/30 12:23:58;;;;;;;9.73;5.32;;;18.00;81.90;;;;;;5058038;28;20029;-72
2021/04/30 12:26:36;;;;;;;5.40;4.75;;;18.50;84.60;;;;;;5057829;28;20051;-71
2021/04/30 12:29:06;;;;;;;6.35;5.57;;;19.00;81.40;;;;;;5057802;28;20440;-72
2021/04/30 12:31:32;;;;;;;6.80;4.82;;;19.00;79.80;;;;;;5057512;28;20051;-70
2021/04/30 12:33:58;;;;;;;6.07;4.28;;;18.80;76.90;;;;;;5057635;28;20045;-72
2021/04/30 12:36:30;;;;;;;7.32;4.20;;;18.60;79.20;;;;;;5057661;28;20030;-71
2021/04/30 12:38:58;;;;;;;5.68;3.53;;;18.50;75.10;;;;;;5057383;28;20029;-74
2021/04/30 12:41:27;;;;;;;3.97;3.58;;;18.20;78.50;;;;;;5057753;28;20044;-72
2021/04/30 12:43:57;;;;;;;5.72;3.30;;;17.90;78.50;;;;;;5057458;28;20094;-71
2021/04/30 12:46:34;;;;;;;5.72;3.40;;;17.70;79.80;;;;;;5057460;28;20420;-72
2021/04/30 12:49:10;;;;;;;5.38;3.85;;;17.50;79.70;;;;;;5057480;28;20431;-71